createdAt,value
2022-08-07T00:00:40.081Z,102040.19
2022-08-07T00:02:44.731Z,102009.50
2022-08-07T00:04:47.510Z,101988.84
2022-08-07T00:06:51.770Z,101937.31
2022-08-07T00:08:54.916Z,101913.09
2022-08-07T00:10:58.360Z,102031.03
2022-08-07T00:13:17.515Z,101913.97
2022-08-07T00:15:37.680Z,102055.81
2022-08-07T00:17:48.866Z,101946.84
2022-08-07T00:20:01.301Z,101986.00
2022-08-07T00:22:05.877Z,102072.97
2022-08-07T00:24:09.154Z,102064.31
2022-08-07T00:26:18.898Z,101952.25
2022-08-07T00:28:35.717Z,101935.44
2022-08-07T00:30:48.776Z,101999.66
2022-08-07T00:32:51.699Z,101920.50
2022-08-07T00:34:54.244Z,102046.69
2022-08-07T00:36:56.926Z,101990.09
2022-08-07T00:38:59.644Z,102017.53
2022-08-07T00:41:04.054Z,101984.28
2022-08-07T00:44:01.889Z,102038.84
2022-08-07T00:45:36.656Z,102035.38
2022-08-07T00:48:08.884Z,101991.38
2022-08-07T00:50:20.419Z,102063.47
2022-08-07T00:52:25.106Z,102047.78
2022-08-07T00:54:29.449Z,102026.94
2022-08-07T00:56:33.982Z,102067.75
2022-08-07T00:58:36.668Z,102045.06
2022-08-07T01:00:53.751Z,102061.66
2022-08-07T01:02:57.185Z,102051.38
2022-08-07T01:05:00.921Z,102030.16
2022-08-07T01:07:05.763Z,102040.50
2022-08-07T01:09:10.370Z,101988.69
2022-08-07T01:12:23.537Z,101992.91
2022-08-07T01:13:57.236Z,102045.25
2022-08-07T01:16:05.502Z,102025.03
2022-08-07T01:18:09.650Z,102048.94
2022-08-07T01:20:16.701Z,101998.38
2022-08-07T01:22:29.001Z,102039.16
2022-08-07T01:24:32.748Z,102037.16
2022-08-07T01:26:36.826Z,102039.53
2022-08-07T01:28:46.358Z,102061.56
2022-08-07T01:30:57.359Z,101897.75
2022-08-07T01:33:02.403Z,101957.88
2022-08-07T01:35:07.616Z,102043.94
2022-08-07T01:37:17.267Z,102015.28
2022-08-07T01:39:22.716Z,101900.25
2022-08-07T01:41:40.855Z,102051.72
2022-08-07T01:44:05.432Z,102048.09
2022-08-07T01:46:12.181Z,102032.16
2022-08-07T01:48:29.856Z,101964.94
2022-08-07T01:50:38.318Z,102027.56
2022-08-07T01:52:49.755Z,102031.25
2022-08-07T01:55:02.030Z,101999.84
2022-08-07T01:57:34.043Z,102052.50
2022-08-07T01:59:49.509Z,102003.09
2022-08-07T02:02:06.548Z,102046.22
2022-08-07T02:04:18.156Z,102050.75
2022-08-07T02:06:32.621Z,102054.91
2022-08-07T02:08:42.540Z,102057.53
2022-08-07T02:10:54.996Z,102032.13
2022-08-07T02:13:01.770Z,102082.72
2022-08-07T02:15:57.677Z,102080.28
2022-08-07T02:18:04.863Z,102079.09
2022-08-07T02:20:17.116Z,102070.56
2022-08-07T02:22:25.767Z,102029.94
2022-08-07T02:24:30.035Z,101976.75
2022-08-07T02:26:34.825Z,102048.94
2022-08-07T02:28:43.651Z,102002.84
2022-08-07T02:30:47.800Z,102047.53
2022-08-07T02:33:07.300Z,102055.78
2022-08-07T02:35:12.901Z,102045.47
2022-08-07T02:37:26.939Z,102067.31
2022-08-07T02:39:43.818Z,102021.63
2022-08-07T02:41:57.494Z,102031.34
2022-08-07T02:44:03.346Z,102036.19
2022-08-07T02:46:11.076Z,102059.66
2022-08-07T02:48:15.650Z,102035.44
2022-08-07T02:50:21.530Z,102040.50
2022-08-07T02:52:33.398Z,102059.91
2022-08-07T02:54:41.783Z,102044.34
2022-08-07T02:56:48.142Z,102043.13
2022-08-07T02:58:54.184Z,101992.22
2022-08-07T03:00:59.571Z,102060.31
2022-08-07T03:03:06.030Z,102051.28
2022-08-07T03:05:12.008Z,102026.81
2022-08-07T03:07:43.192Z,102036.31
2022-08-07T03:09:52.614Z,102049.47
2022-08-07T03:11:57.868Z,102058.91
2022-08-07T03:14:07.846Z,102044.59
2022-08-07T03:16:10.934Z,102060.94
2022-08-07T03:18:17.625Z,102035.44
2022-08-07T03:20:30.100Z,102000.09
2022-08-07T03:22:34.703Z,102002.13
2022-08-07T03:24:37.317Z,102053.31
2022-08-07T03:26:51.183Z,102043.03
2022-08-07T03:29:04.177Z,102046.25
2022-08-07T03:31:24.728Z,102066.06
2022-08-07T03:33:46.837Z,102053.34
2022-08-07T03:35:52.582Z,102022.38
2022-08-07T03:38:04.780Z,102048.88
2022-08-07T03:40:15.072Z,102034.72
2022-08-07T03:42:20.217Z,102056.22
2022-08-07T03:44:34.438Z,102053.00
2022-08-07T03:47:10.803Z,102059.91
2022-08-07T03:49:21.814Z,102065.97
2022-08-07T03:51:30.856Z,102076.13
2022-08-07T03:54:02.068Z,102070.44
2022-08-07T03:56:04.376Z,102032.81
2022-08-07T03:59:07.202Z,101939.13
2022-08-07T04:00:36.565Z,102053.41
2022-08-07T04:02:43.077Z,102063.53
2022-08-07T04:04:57.981Z,102049.16
2022-08-07T04:07:02.376Z,102063.91
2022-08-07T04:09:23.035Z,102075.25
2022-08-07T04:12:25.002Z,102048.13
2022-08-07T04:14:10.658Z,101893.59
2022-08-07T04:16:15.796Z,101920.03
2022-08-07T04:18:59.524Z,102076.38
2022-08-07T04:20:55.987Z,102073.91
2022-08-07T04:23:01.192Z,102062.59
2022-08-07T04:25:08.896Z,102062.78
2022-08-07T04:27:25.287Z,101939.47
2022-08-07T04:29:57.187Z,102060.31
2022-08-07T04:32:02.953Z,102063.34
2022-08-07T04:34:16.502Z,102064.53
2022-08-07T04:36:22.867Z,102057.22
2022-08-07T04:38:29.785Z,102048.09
2022-08-07T04:40:34.914Z,102069.75
2022-08-07T04:42:38.237Z,102088.34
2022-08-07T04:44:54.528Z,102066.88
2022-08-07T04:47:23.685Z,102054.72
2022-08-07T04:50:03.543Z,102079.03
2022-08-07T04:52:46.952Z,102034.44
2022-08-07T04:55:14.878Z,102091.31
2022-08-07T04:58:12.099Z,102032.59
2022-08-07T05:00:53.586Z,102085.47
2022-08-07T05:03:38.923Z,102088.88
2022-08-07T05:06:16.299Z,102051.97
2022-08-07T05:08:59.458Z,102036.91
2022-08-07T05:11:19.468Z,102076.81
2022-08-07T05:14:52.588Z,102068.41
2022-08-07T05:16:07.849Z,102088.00
2022-08-07T05:18:23.260Z,102085.81
2022-08-07T05:20:55.269Z,102067.25
2022-08-07T05:23:05.286Z,102085.72
2022-08-07T05:25:25.326Z,101939.78
2022-08-07T05:28:02.872Z,102002.72
2022-08-07T05:30:04.396Z,101952.09
2022-08-07T05:32:09.964Z,102080.41
2022-08-07T05:34:17.253Z,102089.47
2022-08-07T05:36:30.312Z,102067.13
2022-08-07T05:39:00.672Z,101986.84
2022-08-07T05:40:58.460Z,102081.56
2022-08-07T05:43:01.818Z,102055.63
2022-08-07T05:45:26.259Z,102017.06
2022-08-07T05:47:38.200Z,102036.53
2022-08-07T05:49:58.306Z,102098.19
2022-08-07T05:52:32.187Z,102089.56
2022-08-07T05:54:44.433Z,102094.59
2022-08-07T05:56:58.890Z,102085.03
2022-08-07T05:59:03.900Z,102060.69
2022-08-07T06:01:13.262Z,102109.56
2022-08-07T06:03:21.365Z,102075.41
2022-08-07T06:05:28.780Z,102090.78
2022-08-07T06:08:29.165Z,102088.00
2022-08-07T06:10:11.216Z,102077.00
2022-08-07T06:12:21.121Z,102067.16
2022-08-07T06:14:35.228Z,102043.22
2022-08-07T06:16:50.430Z,102100.09
2022-08-07T06:19:02.604Z,102092.06
2022-08-07T06:22:15.936Z,102083.66
2022-08-07T06:24:37.285Z,102068.31
2022-08-07T06:26:01.601Z,102062.66
2022-08-07T06:28:14.067Z,102061.69
2022-08-07T06:30:32.038Z,102075.00
2022-08-07T06:32:44.438Z,102089.44
2022-08-07T06:34:48.760Z,102059.78
2022-08-07T06:36:52.467Z,102098.19
2022-08-07T06:40:17.951Z,102080.06
2022-08-07T06:42:00.787Z,102045.41
2022-08-07T06:44:16.937Z,101970.03
2022-08-07T06:46:31.293Z,101911.44
2022-08-07T06:48:38.617Z,102072.56
2022-08-07T06:50:47.881Z,102062.44
2022-08-07T06:52:55.687Z,102099.25
2022-08-07T06:55:32.700Z,102081.59
2022-08-07T06:57:47.133Z,102064.31
2022-08-07T07:00:12.087Z,102082.13
2022-08-07T07:02:48.551Z,102005.56
2022-08-07T07:04:54.736Z,102072.84
2022-08-07T07:07:01.113Z,102092.41
2022-08-07T07:09:25.401Z,102072.09
2022-08-07T07:12:07.945Z,102085.22
2022-08-07T07:14:02.716Z,102077.69
2022-08-07T07:16:19.593Z,102040.25
2022-08-07T07:19:11.247Z,102065.38
2022-08-07T07:22:04.328Z,102085.63
2022-08-07T07:24:09.133Z,102038.78
2022-08-07T07:26:34.882Z,102055.06
2022-08-07T07:29:39.748Z,102072.59
2022-08-07T07:31:21.848Z,102085.09
2022-08-07T07:33:28.796Z,102068.19
2022-08-07T07:35:44.118Z,102074.00
2022-08-07T07:38:02.646Z,102054.44
2022-08-07T07:40:16.488Z,102056.50
2022-08-07T07:42:22.259Z,102080.78
2022-08-07T07:44:39.811Z,102070.78
2022-08-07T07:46:54.694Z,102043.97
2022-08-07T07:50:29.800Z,101977.09
2022-08-07T07:51:31.417Z,102058.97
2022-08-07T07:53:56.230Z,102055.06
2022-08-07T07:56:03.267Z,102044.78
2022-08-07T07:58:06.987Z,101939.38
2022-08-07T08:00:12.373Z,102031.03
2022-08-07T08:02:35.707Z,102021.03
2022-08-07T08:04:40.395Z,102026.31
2022-08-07T08:06:50.922Z,102029.28
2022-08-07T08:08:55.402Z,102036.34
2022-08-07T08:11:05.839Z,102024.88
2022-08-07T08:13:15.249Z,102012.41
2022-08-07T08:15:18.230Z,101996.84
2022-08-07T08:18:37.004Z,102013.22
2022-08-07T08:20:47.989Z,102036.00
2022-08-07T08:23:14.364Z,102024.47
2022-08-07T08:25:42.478Z,102023.31
2022-08-07T08:27:56.406Z,102007.53
2022-08-07T08:30:14.296Z,102030.31
2022-08-07T08:32:38.470Z,102034.00
2022-08-07T08:34:46.080Z,102018.25
2022-08-07T08:36:56.134Z,101978.78
2022-08-07T08:39:11.243Z,102014.41
2022-08-07T08:41:56.775Z,102006.44
2022-08-07T08:44:15.613Z,102012.00
2022-08-07T08:46:44.954Z,102019.06
2022-08-07T08:49:19.202Z,102013.19
2022-08-07T08:52:13.968Z,102020.69
2022-08-07T08:54:49.715Z,102001.66
2022-08-07T08:56:54.821Z,102004.25
2022-08-07T08:59:41.973Z,102024.72
2022-08-07T09:02:03.980Z,101991.81
2022-08-07T09:04:40.856Z,102014.78
2022-08-07T09:07:11.366Z,102017.47
2022-08-07T09:09:43.381Z,102013.16
2022-08-07T09:12:20.295Z,102005.69
2022-08-07T09:14:36.863Z,101925.75
2022-08-07T09:17:02.553Z,102014.84
2022-08-07T09:19:56.637Z,101995.38
2022-08-07T09:22:36.945Z,102015.94
2022-08-07T09:24:58.969Z,102007.66
2022-08-07T09:28:00.016Z,102000.88
2022-08-07T09:30:09.414Z,102001.25
2022-08-07T09:32:21.040Z,101998.28
2022-08-07T09:34:41.927Z,101993.16
2022-08-07T09:37:07.596Z,102002.88
2022-08-07T09:39:27.444Z,101992.78
2022-08-07T09:41:59.085Z,101955.72
2022-08-07T09:44:46.517Z,101972.78
2022-08-07T09:47:59.972Z,101979.91
2022-08-07T09:50:18.680Z,101982.19
2022-08-07T09:52:40.564Z,101971.44
2022-08-07T09:54:58.593Z,101968.97
2022-08-07T09:57:37.106Z,101971.91
2022-08-07T10:00:08.378Z,101960.66
2022-08-07T10:02:54.938Z,101965.84
2022-08-07T10:05:29.449Z,101969.41
2022-08-07T10:08:29.701Z,101955.91
2022-08-07T10:11:16.753Z,101948.19
2022-08-07T10:14:00.391Z,101920.81
2022-08-07T10:16:27.447Z,101939.00
2022-08-07T10:18:50.080Z,101933.13
2022-08-07T10:22:15.010Z,101940.13
2022-08-07T10:24:18.698Z,101923.06
2022-08-07T10:26:33.075Z,101939.78
2022-08-07T10:29:16.846Z,101942.19
2022-08-07T10:32:35.729Z,101932.72
2022-08-07T10:35:09.082Z,101937.19
2022-08-07T10:38:02.447Z,101928.41
2022-08-07T10:40:35.654Z,101922.84
2022-08-07T10:43:03.128Z,101925.09
2022-08-07T10:45:44.944Z,101905.44
2022-08-07T10:48:13.584Z,101897.97
2022-08-07T10:50:50.182Z,101897.91
2022-08-07T10:53:25.024Z,101919.56
2022-08-07T10:55:50.406Z,101917.16
2022-08-07T10:58:33.327Z,101893.13
2022-08-07T11:01:23.827Z,101870.50
2022-08-07T11:03:42.946Z,101908.69
2022-08-07T11:06:21.981Z,101905.53
2022-08-07T11:08:53.207Z,101860.75
2022-08-07T11:11:03.756Z,101883.66
2022-08-07T11:14:44.638Z,101899.56
2022-08-07T11:15:56.041Z,101888.50
2022-08-07T11:18:06.372Z,101884.94
2022-08-07T11:20:24.701Z,101890.19
2022-08-07T11:22:37.122Z,101858.78
2022-08-07T11:25:17.613Z,101886.50
2022-08-07T11:28:03.283Z,101878.53
2022-08-07T11:30:18.940Z,101879.94
2022-08-07T11:32:43.892Z,101843.25
2022-08-07T11:34:56.001Z,101810.34
2022-08-07T11:37:58.364Z,101843.59
2022-08-07T11:40:59.612Z,101870.91
2022-08-07T11:43:19.321Z,101832.81
2022-08-07T11:46:03.334Z,101860.75
2022-08-07T11:49:10.282Z,101841.91
2022-08-07T11:51:41.442Z,101855.50
2022-08-07T11:54:42.136Z,101833.75
2022-08-07T11:57:03.897Z,101854.88
2022-08-07T12:00:10.778Z,101840.56
2022-08-07T12:02:52.735Z,101844.72
2022-08-07T12:05:15.241Z,101823.09
2022-08-07T12:07:39.853Z,101743.44
2022-08-07T12:09:58.824Z,101791.91
2022-08-07T12:12:14.312Z,101811.66
2022-08-07T12:14:27.788Z,101828.97
2022-08-07T12:16:41.757Z,101818.94
2022-08-07T12:19:06.760Z,101826.25
2022-08-07T12:22:37.767Z,101825.94
2022-08-07T12:26:00.328Z,101826.59
2022-08-07T12:28:05.753Z,101817.81
2022-08-07T12:30:11.810Z,101786.94
2022-08-07T12:32:16.061Z,101814.47
2022-08-07T12:34:22.808Z,101785.53
2022-08-07T12:36:33.397Z,101810.00
2022-08-07T12:38:43.400Z,101770.44
2022-08-07T12:40:52.440Z,101814.84
2022-08-07T12:42:59.630Z,101812.09
2022-08-07T12:45:13.840Z,101814.81
2022-08-07T12:47:53.772Z,101811.63
2022-08-07T12:50:39.592Z,101811.84
2022-08-07T12:53:22.194Z,101778.25
2022-08-07T12:55:41.378Z,101791.25
2022-08-07T12:58:08.194Z,101782.63
2022-08-07T13:00:16.400Z,101713.34
2022-08-07T13:03:59.351Z,101804.53
2022-08-07T13:06:27.765Z,101765.38
2022-08-07T13:09:01.561Z,101801.41
2022-08-07T13:12:10.046Z,101783.75
2022-08-07T13:15:06.662Z,101766.38
2022-08-07T13:17:40.644Z,101800.13
2022-08-07T13:20:12.771Z,101750.75
2022-08-07T13:22:32.971Z,101778.41
2022-08-07T13:24:53.889Z,101745.97
2022-08-07T13:27:21.207Z,101761.91
2022-08-07T13:30:05.960Z,101762.06
2022-08-07T13:32:35.173Z,101778.97
2022-08-07T13:35:08.899Z,101726.25
2022-08-07T13:37:28.736Z,101663.81
2022-08-07T13:40:36.459Z,101758.38
2022-08-07T13:42:50.042Z,101658.16
2022-08-07T13:46:07.219Z,101582.53
2022-08-07T13:47:25.204Z,101735.41
2022-08-07T13:50:33.175Z,101742.38
2022-08-07T13:52:27.076Z,101735.06
2022-08-07T13:54:33.594Z,101743.50
2022-08-07T13:56:41.249Z,101746.44
2022-08-07T13:59:02.099Z,101724.50
2022-08-07T14:01:22.051Z,101753.78
2022-08-07T14:03:29.549Z,101675.88
2022-08-07T14:05:57.083Z,101726.06
2022-08-07T14:08:02.846Z,101727.19
2022-08-07T14:10:17.474Z,101726.78
2022-08-07T14:12:57.413Z,101690.19
2022-08-07T14:15:07.928Z,101736.19
2022-08-07T14:18:12.312Z,101719.66
2022-08-07T14:20:40.393Z,101697.03
2022-08-07T14:22:34.136Z,101703.34
2022-08-07T14:24:46.015Z,101686.47
2022-08-07T14:26:56.504Z,101702.66
2022-08-07T14:30:02.794Z,101690.97
2022-08-07T14:33:53.867Z,101710.97
2022-08-07T14:36:02.048Z,101726.38
2022-08-07T14:38:07.620Z,101703.38
2022-08-07T14:40:26.524Z,101657.03
2022-08-07T14:42:59.899Z,101696.09
2022-08-07T14:45:21.471Z,101650.28
2022-08-07T14:47:26.568Z,101711.16
2022-08-07T14:52:47.949Z,101711.97
2022-08-07T14:57:19.147Z,101612.31
2022-08-07T15:00:03.253Z,101700.25
2022-08-07T15:01:51.134Z,101687.84
2022-08-07T15:04:03.914Z,101712.66
2022-08-07T15:06:09.573Z,101697.84
2022-08-07T15:08:13.994Z,101609.06
2022-08-07T15:10:29.933Z,101700.88
2022-08-07T15:12:36.518Z,101691.78
2022-08-07T15:14:57.650Z,101689.84
2022-08-07T15:17:12.002Z,101672.22
2022-08-07T15:19:18.989Z,101686.31
2022-08-07T15:22:29.494Z,101686.00
2022-08-07T15:25:12.747Z,101683.81
2022-08-07T15:27:19.806Z,101670.16
2022-08-07T15:30:08.530Z,101680.81
2022-08-07T15:32:04.979Z,101674.94
2022-08-07T15:34:15.048Z,101669.66
2022-08-07T15:38:58.877Z,101584.84
2022-08-07T15:41:24.017Z,101675.34
2022-08-07T15:43:55.817Z,101674.56
2022-08-07T15:46:31.804Z,101667.88
2022-08-07T15:49:04.017Z,101668.06
2022-08-07T15:51:10.084Z,101676.84
2022-08-07T15:53:52.271Z,101652.72
2022-08-07T15:56:02.791Z,101590.91
2022-08-07T15:58:14.497Z,101653.78
2022-08-07T16:00:34.049Z,101572.78
2022-08-07T16:02:46.663Z,101614.16
2022-08-07T16:05:01.431Z,101662.41
2022-08-07T16:07:32.040Z,101652.53
2022-08-07T16:09:47.137Z,101663.38
2022-08-07T16:12:33.572Z,101667.00
2022-08-07T16:14:59.147Z,101664.91
2022-08-07T16:18:02.993Z,101655.38
2022-08-07T16:20:06.608Z,101643.00
2022-08-07T16:22:54.969Z,101622.72
2022-08-07T16:25:54.513Z,101653.41
2022-08-07T16:30:07.033Z,101627.56
2022-08-07T16:31:57.397Z,101647.94
2022-08-07T16:34:10.005Z,101624.28
2022-08-07T16:36:20.933Z,101633.91
2022-08-07T16:39:00.664Z,101607.97
2022-08-07T16:41:41.730Z,101661.09
2022-08-07T16:44:05.912Z,101655.09
2022-08-07T16:47:09.567Z,101654.25
2022-08-07T16:50:20.465Z,101633.84
2022-08-07T16:52:50.343Z,101632.19
2022-08-07T16:55:13.154Z,101649.34
2022-08-07T16:58:02.345Z,101647.06
2022-08-07T17:00:15.049Z,101650.66
2022-08-07T17:03:04.730Z,101654.75
2022-08-07T17:06:19.004Z,101620.00
2022-08-07T17:08:09.260Z,101643.91
2022-08-07T17:10:54.338Z,101644.22
2022-08-07T17:13:03.553Z,101656.88
2022-08-07T17:15:15.764Z,101652.09
2022-08-07T17:17:49.056Z,101659.28
2022-08-07T17:20:03.418Z,101574.66
2022-08-07T17:22:37.501Z,101523.25
2022-08-07T17:25:01.163Z,101659.56
2022-08-07T17:27:51.186Z,101634.75
2022-08-07T17:30:16.121Z,101651.06
2022-08-07T17:32:52.881Z,101653.66
2022-08-07T17:35:49.903Z,101659.00
2022-08-07T17:38:09.585Z,101662.00
2022-08-07T17:40:35.802Z,101624.09
2022-08-07T17:42:58.623Z,101662.75
2022-08-07T17:45:14.912Z,101610.72
2022-08-07T17:47:42.118Z,101664.53
2022-08-07T17:49:58.550Z,101627.63
2022-08-07T17:52:41.381Z,101628.22
2022-08-07T17:55:01.718Z,101639.97
2022-08-07T17:57:20.453Z,101651.31
2022-08-07T17:59:46.588Z,101532.94
2022-08-07T18:02:23.456Z,101653.44
2022-08-07T18:05:21.795Z,101659.13
2022-08-07T18:07:43.725Z,101636.44
2022-08-07T18:10:07.477Z,101634.25
2022-08-07T18:12:51.976Z,101654.34
2022-08-07T18:15:09.669Z,101652.31
2022-08-07T18:18:46.657Z,101657.97
2022-08-07T18:21:09.469Z,101650.84
2022-08-07T18:23:06.365Z,101654.94
2022-08-07T18:25:40.254Z,101634.59
2022-08-07T18:28:15.259Z,101599.09
2022-08-07T18:31:05.417Z,101656.16
2022-08-07T18:33:55.093Z,101670.13
2022-08-07T18:36:33.412Z,101658.56
2022-08-07T18:40:05.542Z,101670.88
2022-08-07T18:41:45.990Z,101675.78
2022-08-07T18:44:31.206Z,101677.47
2022-08-07T18:47:01.682Z,101679.16
2022-08-07T18:50:30.414Z,101548.84
2022-08-07T18:52:52.864Z,101578.75
2022-08-07T18:55:40.998Z,101685.81
2022-08-07T18:57:58.507Z,101677.97
2022-08-07T19:00:34.061Z,101678.53
2022-08-07T19:02:59.736Z,101651.13
2022-08-07T19:05:15.764Z,101686.56
2022-08-07T19:08:03.760Z,101699.25
2022-08-07T19:10:21.443Z,101684.91
2022-08-07T19:12:53.710Z,101691.91
2022-08-07T19:16:04.981Z,101667.69
2022-08-07T19:18:34.620Z,101693.94
2022-08-07T19:21:42.749Z,101698.78
2022-08-07T19:23:59.022Z,101709.00
2022-08-07T19:26:22.998Z,101686.56
2022-08-07T19:30:54.412Z,101691.75
2022-08-07T19:31:41.455Z,101630.72
2022-08-07T19:33:33.582Z,101682.72
2022-08-07T19:35:40.381Z,101661.66
2022-08-07T19:37:56.350Z,101576.91
2022-08-07T19:40:04.551Z,101711.84
2022-08-07T19:42:24.451Z,101717.16
2022-08-07T19:44:41.201Z,101620.09
2022-08-07T19:46:55.601Z,101682.81
2022-08-07T19:49:08.439Z,101714.28
2022-08-07T19:51:19.137Z,101620.69
2022-08-07T19:54:33.256Z,101600.97
2022-08-07T19:55:57.496Z,101618.53
2022-08-07T19:58:13.366Z,101717.25
2022-08-07T20:00:28.386Z,101723.13
2022-08-07T20:02:38.969Z,101703.63
2022-08-07T20:04:49.375Z,101696.44
2022-08-07T20:06:56.530Z,101702.81
2022-08-07T20:09:02.961Z,101682.03
2022-08-07T20:11:12.072Z,101713.25
2022-08-07T20:13:42.055Z,101700.69
2022-08-07T20:15:46.068Z,101730.06
2022-08-07T20:17:56.269Z,101696.94
2022-08-07T20:20:07.516Z,101728.72
2022-08-07T20:22:17.721Z,101650.81
2022-08-07T20:24:34.902Z,101706.81
2022-08-07T20:26:52.139Z,101639.88
2022-08-07T20:28:59.740Z,101706.81
2022-08-07T20:31:11.236Z,101714.03
2022-08-07T20:33:38.347Z,101701.22
2022-08-07T20:35:54.657Z,101675.34
2022-08-07T20:38:07.396Z,101654.81
2022-08-07T20:40:33.124Z,101728.47
2022-08-07T20:42:39.730Z,101703.09
2022-08-07T20:44:49.574Z,101711.09
2022-08-07T20:47:04.297Z,101726.06
2022-08-07T20:50:01.030Z,101734.31
2022-08-07T20:51:35.932Z,101693.50
2022-08-07T20:54:04.171Z,101733.53
2022-08-07T20:56:05.632Z,101739.13
2022-08-07T20:58:19.709Z,101705.50
2022-08-07T21:00:44.498Z,101719.63
2022-08-07T21:03:03.131Z,101712.97
2022-08-07T21:05:17.181Z,101749.78
2022-08-07T21:07:42.388Z,101651.81
2022-08-07T21:10:00.204Z,101659.81
2022-08-07T21:12:08.285Z,101746.31
2022-08-07T21:14:32.797Z,101751.66
2022-08-07T21:18:01.094Z,101751.66
2022-08-07T21:19:51.892Z,101747.13
2022-08-07T21:21:57.736Z,101726.81
2022-08-07T21:24:17.758Z,101741.75
2022-08-07T21:26:56.735Z,101746.00
2022-08-07T21:29:30.585Z,101744.88
2022-08-07T21:32:43.005Z,101752.34
2022-08-07T21:34:31.778Z,101746.69
2022-08-07T21:36:59.462Z,101745.28
2022-08-07T21:39:48.574Z,101753.19
2022-08-07T21:42:48.155Z,101754.69
2022-08-07T21:45:24.268Z,101764.59
2022-08-07T21:48:01.417Z,101748.69
2022-08-07T21:50:14.454Z,101731.25
2022-08-07T21:52:50.263Z,101766.34
2022-08-07T21:55:28.362Z,101737.41
2022-08-07T21:58:32.418Z,101746.13
2022-08-07T22:00:39.955Z,101761.88
2022-08-07T22:03:16.547Z,101752.25
2022-08-07T22:05:44.386Z,101728.16
2022-08-07T22:07:58.439Z,101720.34
2022-08-07T22:10:06.374Z,101728.09
2022-08-07T22:12:24.565Z,101759.38
2022-08-07T22:14:37.830Z,101750.25
2022-08-07T22:17:04.221Z,101748.34
2022-08-07T22:19:30.149Z,101736.19
2022-08-07T22:22:04.805Z,101735.41
2022-08-07T22:24:21.484Z,101761.03
2022-08-07T22:27:02.681Z,101740.13
2022-08-07T22:29:47.540Z,101737.19
2022-08-07T22:32:05.973Z,101740.72
2022-08-07T22:34:53.423Z,101729.97
2022-08-07T22:37:12.402Z,101761.47
2022-08-07T22:39:52.840Z,101758.25
2022-08-07T22:42:25.604Z,101754.69
2022-08-07T22:44:36.058Z,101759.38
2022-08-07T22:47:08.858Z,101763.81
2022-08-07T22:49:54.521Z,101755.31
2022-08-07T22:52:36.561Z,101754.50
2022-08-07T22:55:30.988Z,101746.97
2022-08-07T22:58:10.609Z,101736.00
2022-08-07T23:00:29.194Z,101715.19
2022-08-07T23:03:57.975Z,101746.66
2022-08-07T23:06:16.584Z,101761.16
2022-08-07T23:08:56.000Z,101767.75
2022-08-07T23:11:41.380Z,101766.19
2022-08-07T23:14:20.823Z,101767.63
2022-08-07T23:16:59.397Z,101766.97
2022-08-07T23:19:48.298Z,101720.25
2022-08-07T23:22:31.238Z,101758.00
2022-08-07T23:25:19.104Z,101773.59
2022-08-07T23:28:22.924Z,101730.84
2022-08-07T23:30:37.236Z,101763.41
2022-08-07T23:34:22.144Z,101773.31
2022-08-07T23:35:55.860Z,101762.03
2022-08-07T23:38:36.209Z,101762.84
2022-08-07T23:40:55.999Z,101764.63
2022-08-07T23:43:18.402Z,101767.03
2022-08-07T23:46:02.873Z,101761.06
2022-08-07T23:48:34.206Z,101767.38
2022-08-07T23:52:53.489Z,101774.19
2022-08-07T23:53:49.461Z,101777.34
2022-08-07T23:56:13.231Z,101770.34
2022-08-07T23:58:27.106Z,101771.72
